Time;durP1;ratioP1;P1;durP2;ratioP2;P2;SDS_P1;SDS_P2;PMS_P1;PMS_P2;Temp;Humidity;BMP_temperature;BMP_pressure;BME280_temperature;BME280_humidity;BME280_pressure;Samples;Min_cycle;Max_cycle;Signal;HPM_P1;HPM_P2
2023/06/24 00:02:24;;;;;;;6.17;5.67;;;18.50;99.90;;;;;;5096947;28;20480;-77
2023/06/24 00:04:52;;;;;;;6.40;5.90;;;18.40;99.90;;;;;;5084199;28;20451;-79
2023/06/24 00:07:21;;;;;;;6.77;5.70;;;18.40;99.90;;;;;;5102796;28;20444;-79
2023/06/24 00:09:54;;;;;;;5.50;5.10;;;18.40;99.90;;;;;;5103489;28;20511;-79
2023/06/24 00:12:22;;;;;;;6.27;5.77;;;18.40;99.90;;;;;;5101572;28;20554;-78
2023/06/24 00:14:51;;;;;;;6.73;6.03;;;18.40;99.90;;;;;;5100939;28;20805;-79
2023/06/24 00:17:19;;;;;;;5.63;5.13;;;18.20;99.90;;;;;;5101942;28;20451;-80
2023/06/24 00:19:49;;;;;;;6.40;5.93;;;18.20;99.90;;;;;;5101513;28;20456;-78
2023/06/24 00:22:18;;;;;;;7.00;6.40;;;18.20;99.90;;;;;;5099964;28;20533;-78
2023/06/24 00:24:46;;;;;;;7.17;6.57;;;18.20;99.90;;;;;;5098080;28;20527;-78
2023/06/24 00:27:16;;;;;;;7.23;6.63;;;18.20;99.90;;;;;;5097926;28;20456;-78
2023/06/24 00:29:44;;;;;;;6.37;5.77;;;18.10;99.90;;;;;;5097008;28;20454;-78
2023/06/24 00:32:13;;;;;;;6.20;5.60;;;18.10;99.90;;;;;;5099574;28;20539;-78
2023/06/24 00:34:43;;;;;;;7.00;6.10;;;18.10;99.90;;;;;;5098588;28;20547;-78
2023/06/24 00:37:11;;;;;;;6.20;5.70;;;18.10;99.90;;;;;;5098533;28;20448;-79
2023/06/24 00:39:42;;;;;;;6.90;6.30;;;18.10;99.90;;;;;;5097896;28;20444;-78
2023/06/24 00:42:11;;;;;;;6.87;6.27;;;18.10;99.90;;;;;;5098500;28;20862;-78
2023/06/24 00:44:45;;;;;;;6.40;5.90;;;18.00;99.90;;;;;;5097142;28;20887;-77
2023/06/24 00:50:32;;;;;;;6.90;6.30;;;17.90;99.90;;;;;;5088813;28;20447;-77
2023/06/24 00:53:03;;;;;;;9.20;7.00;;;17.80;99.90;;;;;;5104323;28;20551;-77
2023/06/24 00:55:32;;;;;;;6.80;6.30;;;17.70;99.90;;;;;;5103730;28;20885;-77
2023/06/24 00:58:03;;;;;;;7.20;6.60;;;17.60;99.90;;;;;;5096661;28;20444;-78
2023/06/24 01:00:38;;;;;;;7.83;7.13;;;17.60;99.90;;;;;;5096246;28;20456;-78
2023/06/24 01:03:07;;;;;;;7.33;6.77;;;17.60;99.90;;;;;;5096996;28;20487;-78
2023/06/24 01:05:36;;;;;;;7.20;6.60;;;17.60;99.90;;;;;;5095985;28;20456;-78
2023/06/24 01:08:05;;;;;;;8.03;7.33;;;17.60;99.90;;;;;;5096097;28;21026;-79
2023/06/24 01:10:35;;;;;;;7.23;6.53;;;17.60;99.90;;;;;;5098069;28;21256;-77
2023/06/24 01:13:04;;;;;;;7.60;6.83;;;17.50;99.90;;;;;;5100135;28;20480;-78
2023/06/24 01:15:38;;;;;;;7.73;7.03;;;17.50;99.90;;;;;;5096586;28;20959;-79
2023/06/24 01:18:11;;;;;;;8.00;7.37;;;17.50;99.90;;;;;;5096010;28;20912;-77
2023/06/24 01:20:49;;;;;;;7.10;6.60;;;17.40;99.90;;;;;;5096443;28;20456;-77
2023/06/24 01:23:41;;;;;;;6.63;6.13;;;17.30;99.90;;;;;;5097635;28;20487;-77
2023/06/24 01:26:45;;;;;;;7.30;6.70;;;17.30;99.90;;;;;;5078994;28;20464;-77
2023/06/24 01:29:48;;;;;;;6.90;6.37;;;17.40;99.90;;;;;;5096300;28;20881;-78
2023/06/24 01:32:29;;;;;;;7.53;7.00;;;17.40;99.90;;;;;;5096124;28;20463;-78
2023/06/24 01:35:15;;;;;;;6.73;6.13;;;17.40;99.90;;;;;;5097231;28;20424;-77
2023/06/24 01:37:52;;;;;;;6.43;5.93;;;17.30;99.90;;;;;;5097584;28;20463;-77
2023/06/24 01:40:42;;;;;;;7.17;6.60;;;17.40;99.90;;;;;;5095692;28;20502;-77
2023/06/24 01:43:14;;;;;;;7.30;6.60;;;17.40;99.90;;;;;;5094160;28;20902;-79
2023/06/24 01:45:47;;;;;;;7.27;6.67;;;17.40;99.90;;;;;;5096195;28;20869;-78
2023/06/24 01:48:24;;;;;;;7.20;6.57;;;17.40;99.90;;;;;;5095685;28;20456;-78
2023/06/24 01:51:01;;;;;;;7.40;6.70;;;17.40;99.90;;;;;;5095288;28;20974;-77
2023/06/24 01:53:34;;;;;;;6.97;6.30;;;17.40;99.90;;;;;;5095424;28;20494;-77
2023/06/24 01:56:08;;;;;;;5.80;5.40;;;17.40;99.90;;;;;;5095132;28;20948;-78
2023/06/24 01:58:42;;;;;;;7.10;6.50;;;17.40;99.90;;;;;;5096551;28;20535;-78
2023/06/24 02:01:12;;;;;;;6.93;5.90;;;17.40;99.90;;;;;;5095198;28;20943;-78
2023/06/24 02:03:44;;;;;;;7.33;6.17;;;17.40;99.90;;;;;;5094862;28;20559;-78
2023/06/24 02:06:15;;;;;;;6.77;6.17;;;17.40;99.90;;;;;;5095000;28;20531;-77
2023/06/24 02:08:45;;;;;;;7.20;6.60;;;17.30;99.90;;;;;;5095560;28;20464;-78
2023/06/24 02:11:19;;;;;;;6.50;6.00;;;17.30;99.90;;;;;;5095399;28;20444;-77
2023/06/24 02:13:49;;;;;;;7.10;6.47;;;17.20;99.90;;;;;;5094605;28;21034;-77
2023/06/24 02:16:23;;;;;;;7.00;6.40;;;17.20;99.90;;;;;;5094671;28;20468;-77
2023/06/24 02:19:17;;;;;;;7.17;6.57;;;17.10;99.90;;;;;;5094447;28;20931;-78
2023/06/24 02:21:47;;;;;;;7.47;6.87;;;17.10;99.90;;;;;;5095048;28;21070;-78
2023/06/24 02:24:17;;;;;;;7.57;6.97;;;17.00;99.90;;;;;;5094698;28;20452;-77
2023/06/24 02:26:53;;;;;;;7.70;7.10;;;17.00;99.90;;;;;;5095972;28;20471;-77
2023/06/24 02:29:26;;;;;;;8.43;7.63;;;17.00;99.90;;;;;;5094670;28;20455;-76
2023/06/24 02:31:55;;;;;;;7.60;6.80;;;16.90;99.90;;;;;;5094073;28;20962;-78
2023/06/24 02:34:29;;;;;;;6.60;6.10;;;17.00;99.90;;;;;;5094395;28;20460;-78
2023/06/24 02:39:49;;;;;;;7.67;7.10;;;16.90;99.90;;;;;;5090955;28;20523;-78
2023/06/24 02:42:19;;;;;;;7.50;6.90;;;16.40;99.90;;;;;;5095988;28;20496;-80
2023/06/24 02:44:54;;;;;;;7.80;6.83;;;16.80;99.90;;;;;;5105134;28;20444;-76
2023/06/24 02:47:28;;;;;;;9.37;7.43;;;16.80;99.90;;;;;;5103749;28;20452;-77
2023/06/24 02:50:02;;;;;;;8.60;7.70;;;16.80;99.90;;;;;;5105547;28;20482;-77
2023/06/24 02:52:30;;;;;;;7.10;6.50;;;16.80;99.90;;;;;;5102567;28;20459;-78
2023/06/24 02:55:02;;;;;;;8.03;7.23;;;16.80;99.90;;;;;;5100701;28;20472;-77
2023/06/24 02:57:34;;;;;;;7.10;6.57;;;16.70;99.90;;;;;;5100085;28;20479;-78
2023/06/24 03:00:08;;;;;;;7.30;6.70;;;16.70;99.90;;;;;;5100719;28;20460;-77
2023/06/24 03:02:37;;;;;;;7.43;6.83;;;16.70;99.90;;;;;;5104524;28;20480;-79
2023/06/24 03:05:09;;;;;;;8.13;7.27;;;16.70;99.90;;;;;;5105009;28;20527;-77
2023/06/24 03:07:39;;;;;;;7.57;6.90;;;16.60;99.90;;;;;;5104868;28;20478;-79
2023/06/24 03:10:10;;;;;;;7.33;6.63;;;16.60;99.90;;;;;;5097227;28;20482;-77
2023/06/24 03:12:45;;;;;;;7.70;6.87;;;16.60;99.90;;;;;;5094851;28;20864;-78
2023/06/24 03:15:23;;;;;;;10.90;9.87;;;16.60;99.90;;;;;;5094733;28;20532;-78
2023/06/24 03:18:01;;;;;;;10.30;9.40;;;16.50;99.90;;;;;;5096902;28;20427;-77
2023/06/24 03:20:38;;;;;;;9.53;8.70;;;16.50;99.90;;;;;;5096277;28;20455;-78
2023/06/24 03:23:13;;;;;;;8.10;7.37;;;16.50;99.90;;;;;;5096029;28;20482;-77
2023/06/24 03:25:42;;;;;;;8.57;7.87;;;16.40;99.90;;;;;;5094568;28;20440;-78
2023/06/24 03:28:11;;;;;;;8.67;7.87;;;16.40;99.90;;;;;;5098044;28;20539;-78
2023/06/24 03:30:41;;;;;;;7.67;7.07;;;16.40;99.90;;;;;;5098834;28;20470;-77
2023/06/24 03:33:10;;;;;;;9.37;8.57;;;16.40;99.90;;;;;;5095370;28;20820;-78
2023/06/24 03:35:41;;;;;;;7.67;7.07;;;16.40;99.90;;;;;;5093807;28;20456;-77
2023/06/24 03:38:11;;;;;;;7.70;7.07;;;16.40;99.90;;;;;;5095390;28;20531;-77
2023/06/24 03:40:43;;;;;;;8.07;7.47;;;16.20;99.90;;;;;;5098979;28;20475;-77
2023/06/24 03:43:15;;;;;;;8.30;7.57;;;16.40;99.90;;;;;;5102972;28;20484;-79
2023/06/24 03:48:30;;;;;;;7.40;6.80;;;16.30;99.90;;;;;;5095953;28;20452;-78
2023/06/24 03:51:01;;;;;;;8.60;7.63;;;16.30;99.90;;;;;;5101224;28;20513;-77
2023/06/24 03:53:32;;;;;;;7.70;7.10;;;16.30;99.90;;;;;;5105186;28;20432;-77
2023/06/24 03:56:05;;;;;;;7.90;7.10;;;16.20;99.90;;;;;;5105840;28;20471;-78
2023/06/24 03:58:33;;;;;;;7.93;7.33;;;16.20;99.90;;;;;;5102359;28;20452;-77
2023/06/24 04:01:03;;;;;;;8.10;7.40;;;16.20;99.90;;;;;;5098183;28;20535;-78
2023/06/24 04:03:32;;;;;;;7.63;7.03;;;16.20;99.90;;;;;;5093543;28;20537;-78
2023/06/24 04:06:01;;;;;;;8.47;7.73;;;16.30;99.90;;;;;;5093401;28;20459;-79
2023/06/24 04:08:30;;;;;;;8.00;7.30;;;16.30;99.90;;;;;;5091578;28;20458;-78
2023/06/24 04:10:59;;;;;;;7.10;6.60;;;16.30;99.90;;;;;;5093415;28;20532;-78
2023/06/24 04:13:27;;;;;;;9.30;8.40;;;16.30;99.90;;;;;;5093090;28;20460;-78
2023/06/24 04:15:55;;;;;;;8.60;7.90;;;16.40;99.90;;;;;;5092657;28;20454;-77
2023/06/24 04:18:24;;;;;;;8.83;8.00;;;16.50;99.90;;;;;;5092460;28;20452;-77
2023/06/24 04:20:52;;;;;;;7.57;6.90;;;16.50;99.90;;;;;;5092962;28;20535;-76
2023/06/24 04:24:02;;;;;;;8.30;7.10;;;16.50;99.90;;;;;;5092662;28;20483;-78
2023/06/24 04:26:32;;;;;;;8.07;7.47;;;16.60;99.90;;;;;;5094236;28;20535;-78
2023/06/24 04:29:02;;;;;;;9.03;8.33;;;16.60;99.90;;;;;;5094079;28;20444;-76
2023/06/24 04:31:34;;;;;;;8.03;7.20;;;16.90;99.90;;;;;;5093368;28;20540;-77
2023/06/24 04:34:09;;;;;;;8.30;7.60;;;16.70;99.90;;;;;;5094720;28;20472;-78
2023/06/24 04:36:39;;;;;;;8.13;7.43;;;16.70;99.90;;;;;;5094702;28;20424;-78
2023/06/24 04:39:09;;;;;;;8.07;7.37;;;16.80;99.90;;;;;;5095240;28;20954;-79
2023/06/24 04:41:41;;;;;;;8.67;7.87;;;16.80;99.90;;;;;;5093971;28;20889;-78
2023/06/24 04:44:11;;;;;;;9.17;8.47;;;16.80;99.90;;;;;;5094694;28;20845;-77
2023/06/24 04:46:45;;;;;;;9.67;8.80;;;16.80;99.90;;;;;;5095361;28;20458;-79
2023/06/24 04:49:14;;;;;;;8.17;7.50;;;16.90;99.90;;;;;;5099188;28;20865;-78
2023/06/24 04:51:48;;;;;;;8.10;7.50;;;16.90;99.90;;;;;;5100440;28;20947;-78
2023/06/24 04:54:24;;;;;;;10.83;8.17;;;17.00;99.90;;;;;;5098381;28;20431;-77
2023/06/24 04:56:57;;;;;;;8.43;7.80;;;17.10;99.90;;;;;;5098185;28;20846;-78
2023/06/24 04:59:26;;;;;;;8.70;8.00;;;17.10;99.90;;;;;;5099958;28;20452;-77
2023/06/24 05:01:57;;;;;;;8.93;8.10;;;17.20;99.90;;;;;;5100713;28;20448;-75
2023/06/24 05:04:24;;;;;;;8.90;8.20;;;17.20;99.90;;;;;;5101052;28;20468;-78
2023/06/24 05:06:59;;;;;;;8.70;8.00;;;17.00;99.90;;;;;;5101678;28;21161;-79
2023/06/24 05:09:32;;;;;;;8.27;7.57;;;17.40;99.90;;;;;;5101702;28;20452;-77
2023/06/24 05:12:04;;;;;;;8.07;7.37;;;17.40;99.90;;;;;;5102764;28;20452;-78
2023/06/24 05:15:10;;;;;;;8.20;7.40;;;17.50;99.90;;;;;;5104798;28;20520;-77
2023/06/24 05:18:07;;;;;;;8.20;7.30;;;17.60;99.90;;;;;;5104319;28;20471;-78
2023/06/24 05:20:41;;;;;;;7.83;7.20;;;17.70;99.90;;;;;;5098454;28;20456;-77
2023/06/24 05:23:19;;;;;;;7.87;7.07;;;17.90;99.90;;;;;;5104497;28;20483;-78
2023/06/24 05:25:52;;;;;;;8.23;7.43;;;17.70;99.90;;;;;;5108630;28;20521;-79
2023/06/24 05:28:24;;;;;;;9.33;7.90;;;18.10;99.90;;;;;;5109229;28;20428;-78
2023/06/24 05:30:52;;;;;;;8.50;7.90;;;18.20;99.90;;;;;;5110399;28;20429;-78
2023/06/24 05:33:21;;;;;;;8.37;7.67;;;18.30;99.90;;;;;;5109366;28;20501;-79
2023/06/24 05:35:50;;;;;;;7.87;7.17;;;18.30;99.90;;;;;;5106387;28;20429;-78
2023/06/24 05:38:25;;;;;;;9.67;7.37;;;18.50;99.90;;;;;;5106634;28;20464;-77
2023/06/24 05:40:55;;;;;;;7.93;7.30;;;18.60;99.90;;;;;;5105539;28;20440;-78
2023/06/24 05:43:23;;;;;;;7.80;7.20;;;18.70;99.90;;;;;;5105380;28;20480;-78
2023/06/24 05:45:54;;;;;;;7.23;6.63;;;18.80;99.90;;;;;;5105504;28;20471;-79
2023/06/24 05:48:22;;;;;;;7.43;6.83;;;18.90;99.90;;;;;;5105281;28;20429;-78
2023/06/24 05:50:51;;;;;;;8.17;7.50;;;18.90;99.90;;;;;;5103999;28;20448;-78
2023/06/24 05:53:19;;;;;;;8.00;7.27;;;19.00;99.90;;;;;;5102710;28;20464;-79
2023/06/24 05:55:51;;;;;;;7.67;7.00;;;19.10;99.90;;;;;;5102408;28;21095;-78
2023/06/24 05:58:22;;;;;;;6.83;6.33;;;19.20;99.90;;;;;;5101037;28;20990;-78
2023/06/24 06:00:50;;;;;;;6.90;6.40;;;19.40;99.90;;;;;;5102909;28;20464;-79
2023/06/24 06:03:18;;;;;;;7.17;6.50;;;19.40;99.90;;;;;;5099303;28;20490;-78
2023/06/24 06:05:47;;;;;;;7.27;6.57;;;19.50;99.90;;;;;;5098227;28;20448;-78
2023/06/24 06:08:16;;;;;;;7.13;6.53;;;19.60;99.90;;;;;;5098007;28;20463;-78
2023/06/24 06:10:44;;;;;;;6.23;5.73;;;19.60;99.90;;;;;;5097880;28;20448;-77
2023/06/24 06:13:12;;;;;;;6.67;6.23;;;19.70;99.90;;;;;;5098624;28;20565;-79
2023/06/24 06:15:42;;;;;;;6.53;5.93;;;19.90;99.90;;;;;;5101387;28;20436;-78
2023/06/24 06:18:17;;;;;;;6.30;5.80;;;20.10;99.90;;;;;;5101277;28;20509;-76
2023/06/24 06:20:46;;;;;;;6.60;6.10;;;20.20;99.90;;;;;;5100453;28;20535;-77
2023/06/24 06:23:15;;;;;;;11.70;10.80;;;20.30;99.90;;;;;;5099008;28;20468;-79
2023/06/24 06:25:44;;;;;;;6.87;6.30;;;20.40;99.90;;;;;;5098963;28;20871;-78
2023/06/24 06:28:12;;;;;;;6.60;6.07;;;20.60;99.90;;;;;;5098162;28;20449;-79
2023/06/24 06:30:41;;;;;;;5.80;5.20;;;20.60;99.90;;;;;;5098349;28;20441;-77
2023/06/24 06:33:12;;;;;;;5.60;5.10;;;20.70;99.90;;;;;;5098871;28;20484;-78
2023/06/24 06:35:40;;;;;;;5.43;4.93;;;20.80;99.90;;;;;;5098180;28;20446;-77
2023/06/24 06:38:08;;;;;;;5.73;5.10;;;20.90;99.90;;;;;;5098955;28;20490;-76
2023/06/24 06:40:37;;;;;;;5.87;5.37;;;20.90;99.90;;;;;;5098337;28;20444;-77
2023/06/24 06:43:05;;;;;;;5.50;5.00;;;21.00;99.90;;;;;;5097863;28;20726;-78
2023/06/24 06:45:34;;;;;;;6.00;5.60;;;21.10;99.90;;;;;;5099006;28;20457;-78
2023/06/24 06:48:07;;;;;;;5.90;5.50;;;21.10;99.90;;;;;;5098245;28;20521;-78
2023/06/24 06:50:45;;;;;;;6.77;6.07;;;21.20;99.90;;;;;;5099605;28;20468;-79
2023/06/24 06:53:13;;;;;;;5.70;5.20;;;21.30;99.90;;;;;;5098619;28;20763;-77
2023/06/24 06:55:44;;;;;;;5.83;5.27;;;21.50;99.90;;;;;;5098145;28;20430;-78
2023/06/24 06:58:23;;;;;;;5.53;5.03;;;21.50;99.90;;;;;;5101126;28;20449;-78
2023/06/24 07:00:56;;;;;;;5.67;5.27;;;21.70;99.90;;;;;;5103342;28;20477;-78
2023/06/24 07:03:41;;;;;;;4.90;4.50;;;21.70;99.90;;;;;;5103122;28;20501;-77
2023/06/24 07:06:10;;;;;;;5.27;4.77;;;21.90;99.90;;;;;;5103488;28;20464;-77
2023/06/24 07:08:39;;;;;;;5.10;4.70;;;21.90;99.90;;;;;;5101607;28;20449;-78
2023/06/24 07:11:09;;;;;;;6.60;6.10;;;22.00;99.90;;;;;;5100497;28;20471;-78
2023/06/24 07:13:37;;;;;;;5.07;4.57;;;22.00;99.90;;;;;;5099507;28;20472;-78
2023/06/24 07:16:07;;;;;;;4.87;4.50;;;22.20;99.90;;;;;;5099511;28;20457;-79
2023/06/24 07:18:37;;;;;;;5.30;4.90;;;22.20;99.90;;;;;;5099328;28;20457;-77
2023/06/24 07:21:06;;;;;;;5.10;4.80;;;22.30;99.90;;;;;;5098357;28;20454;-78
2023/06/24 07:23:34;;;;;;;7.60;4.63;;;22.30;99.90;;;;;;5096557;28;20467;-77
2023/06/24 07:26:03;;;;;;;4.50;4.20;;;22.30;99.90;;;;;;5096979;28;20549;-78
2023/06/24 07:28:31;;;;;;;4.90;4.50;;;22.40;99.90;;;;;;5094718;28;20457;-77
2023/06/24 07:31:01;;;;;;;5.30;4.90;;;22.50;99.90;;;;;;5097222;28;20826;-78
2023/06/24 07:33:30;;;;;;;5.00;4.70;;;22.60;99.90;;;;;;5097425;28;20474;-78
2023/06/24 07:36:01;;;;;;;4.50;4.20;;;22.70;99.90;;;;;;5100537;28;20517;-78
2023/06/24 07:38:31;;;;;;;5.00;4.60;;;22.70;99.90;;;;;;5098925;28;20454;-78
2023/06/24 07:41:00;;;;;;;5.00;4.60;;;22.90;99.90;;;;;;5100153;28;20434;-78
2023/06/24 07:43:28;;;;;;;4.43;4.03;;;23.00;99.90;;;;;;5098058;28;20469;-78
2023/06/24 07:45:56;;;;;;;5.50;5.10;;;23.10;99.90;;;;;;5098654;28;20467;-79
2023/06/24 07:48:25;;;;;;;5.23;4.83;;;23.10;99.90;;;;;;5099332;28;20546;-78
2023/06/24 07:50:53;;;;;;;5.00;4.70;;;23.20;99.90;;;;;;5098294;28;21096;-79
2023/06/24 07:53:24;;;;;;;5.70;4.50;;;23.30;99.90;;;;;;5097248;28;20471;-79
2023/06/24 07:55:52;;;;;;;5.33;4.90;;;23.30;99.90;;;;;;5096980;28;20448;-79
2023/06/24 07:58:20;;;;;;;4.30;4.10;;;23.30;99.90;;;;;;5097189;28;20452;-77
2023/06/24 08:00:52;;;;;;;6.13;4.50;;;23.10;99.90;;;;;;5097137;28;20458;-78
2023/06/24 08:03:21;;;;;;;5.53;5.13;;;23.00;99.90;;;;;;5096186;28;20553;-78
2023/06/24 08:05:50;;;;;;;4.80;4.40;;;23.10;99.90;;;;;;5096399;28;20506;-77
2023/06/24 08:08:20;;;;;;;5.10;4.70;;;23.10;99.90;;;;;;5096961;28;20453;-78
2023/06/24 08:10:51;;;;;;;5.57;5.03;;;23.40;99.90;;;;;;5101376;28;20455;-77
2023/06/24 08:13:20;;;;;;;5.47;5.07;;;23.50;99.90;;;;;;5097113;28;20481;-78
2023/06/24 08:15:49;;;;;;;4.67;4.37;;;23.30;99.90;;;;;;5098521;28;20466;-79
2023/06/24 08:18:19;;;;;;;4.40;4.10;;;23.50;99.90;;;;;;5099234;28;20452;-78
2023/06/24 08:20:50;;;;;;;4.93;4.53;;;23.70;99.90;;;;;;5100887;28;20438;-80
2023/06/24 08:23:22;;;;;;;4.83;4.47;;;23.90;99.90;;;;;;5101167;28;20485;-78
2023/06/24 08:25:53;;;;;;;5.10;4.70;;;24.10;99.90;;;;;;5103831;28;20509;-79
2023/06/24 08:28:25;;;;;;;5.57;5.07;;;24.10;99.90;;;;;;5104238;28;20452;-78
2023/06/24 08:30:53;;;;;;;5.67;5.10;;;24.30;99.90;;;;;;5103783;28;20447;-79
2023/06/24 08:33:22;;;;;;;5.07;4.70;;;24.40;99.90;;;;;;5103767;28;20543;-79
2023/06/24 08:35:51;;;;;;;4.90;4.60;;;24.30;99.90;;;;;;5104377;28;20553;-79
2023/06/24 08:38:19;;;;;;;4.50;4.10;;;24.40;99.90;;;;;;5105286;28;20452;-79
2023/06/24 08:40:51;;;;;;;4.43;4.13;;;24.50;99.90;;;;;;5103473;28;20428;-78
2023/06/24 08:43:23;;;;;;;4.13;3.93;;;24.60;99.90;;;;;;5102190;28;20445;-79
2023/06/24 08:48:41;;;;;;;4.77;3.93;;;24.30;99.90;;;;;;5101251;28;20501;-78
2023/06/24 08:51:10;;;;;;;5.00;4.57;;;24.40;99.90;;;;;;5102882;28;20470;-78
2023/06/24 08:53:44;;;;;;;4.50;4.20;;;24.80;99.90;;;;;;5102198;28;20478;-79
2023/06/24 08:56:13;;;;;;;5.30;4.90;;;25.10;99.90;;;;;;5103382;28;20440;-79
2023/06/24 08:58:45;;;;;;;4.90;4.60;;;25.40;99.90;;;;;;5104484;28;20449;-78
2023/06/24 09:01:14;;;;;;;4.03;3.73;;;25.60;99.90;;;;;;5102516;28;20520;-77
2023/06/24 09:03:44;;;;;;;4.23;3.83;;;25.70;99.90;;;;;;5102456;28;20889;-79
2023/06/24 09:06:23;;;;;;;;;;;;;;;;;;;;;
2023/06/24 09:08:55;;;;;;;4.70;4.30;;;26.00;99.90;;;;;;5103359;28;20517;-79
2023/06/24 09:11:32;;;;;;;4.00;3.70;;;26.20;99.90;;;;;;5102310;28;20456;-79
2023/06/24 09:14:03;;;;;;;3.93;3.60;;;26.20;99.90;;;;;;5103332;28;20491;-77
2023/06/24 09:16:31;;;;;;;7.73;4.20;;;26.10;99.90;;;;;;5103311;28;20447;-79
2023/06/24 09:19:00;;;;;;;5.30;4.00;;;26.20;99.90;;;;;;5104334;28;20470;-78
2023/06/24 09:21:34;;;;;;;4.97;4.57;;;26.20;99.90;;;;;;5104198;28;20461;-78
2023/06/24 09:24:04;;;;;;;3.90;3.70;;;26.30;99.90;;;;;;5105722;28;20987;-78
2023/06/24 09:26:33;;;;;;;4.30;4.00;;;26.30;99.90;;;;;;5105433;28;20522;-79
2023/06/24 09:29:07;;;;;;;3.97;3.67;;;26.30;99.90;;;;;;5106049;28;20863;-79
2023/06/24 09:31:35;;;;;;;4.20;3.90;;;25.90;99.90;;;;;;5106712;28;20446;-80
2023/06/24 09:34:03;;;;;;;4.03;3.73;;;26.40;99.90;;;;;;5106088;28;20454;-79
2023/06/24 09:36:38;;;;;;;5.40;5.00;;;26.70;99.90;;;;;;5103788;28;20431;-78
2023/06/24 09:39:08;;;;;;;4.57;4.27;;;27.10;99.90;;;;;;5106372;28;20445;-78
2023/06/24 09:41:38;;;;;;;4.57;4.17;;;27.50;99.60;;;;;;5104216;28;20448;-80
2023/06/24 09:44:13;;;;;;;3.80;3.50;;;27.80;98.80;;;;;;5106467;28;20460;-79
2023/06/24 09:46:45;;;;;;;4.00;3.70;;;28.00;97.20;;;;;;5105590;28;20469;-78
2023/06/24 09:49:15;;;;;;;4.03;3.80;;;28.00;96.50;;;;;;5109821;28;20401;-78
2023/06/24 09:51:48;;;;;;;4.13;3.83;;;28.00;96.50;;;;;;5107969;28;20970;-78
2023/06/24 09:54:20;;;;;;;3.57;3.37;;;28.00;96.30;;;;;;5107924;28;20448;-78
2023/06/24 09:56:55;;;;;;;4.50;4.03;;;28.20;96.20;;;;;;5110591;28;20436;-79
2023/06/24 09:59:29;;;;;;;4.67;4.20;;;28.10;94.90;;;;;;5110428;28;20500;-78
2023/06/24 10:02:01;;;;;;;3.37;3.17;;;28.20;95.20;;;;;;5111893;28;20440;-79
2023/06/24 10:04:56;;;;;;;3.80;3.50;;;28.30;92.90;;;;;;5110253;28;20467;-78
2023/06/24 10:07:29;;;;;;;3.40;3.20;;;28.40;91.90;;;;;;5109263;28;20474;-79
2023/06/24 10:09:59;;;;;;;3.30;3.10;;;28.60;90.90;;;;;;5108919;28;20527;-78
2023/06/24 10:12:28;;;;;;;4.00;3.70;;;28.60;91.50;;;;;;5109899;28;20479;-78
2023/06/24 10:14:58;;;;;;;4.33;3.63;;;28.70;92.00;;;;;;5109802;28;20463;-78
2023/06/24 10:17:26;;;;;;;4.80;3.53;;;28.70;91.40;;;;;;5109693;28;20444;-80
2023/06/24 10:19:55;;;;;;;3.67;3.47;;;28.50;91.50;;;;;;5108489;28;20452;-79
2023/06/24 10:22:25;;;;;;;3.97;3.67;;;28.80;90.70;;;;;;5108942;28;20476;-79
2023/06/24 10:24:56;;;;;;;4.13;3.67;;;29.20;90.60;;;;;;5109218;28;20467;-79
2023/06/24 10:27:27;;;;;;;3.80;3.50;;;29.20;90.40;;;;;;5107361;28;20455;-78
2023/06/24 10:29:58;;;;;;;4.20;3.90;;;29.60;90.20;;;;;;5109329;28;20525;-77
2023/06/24 10:32:27;;;;;;;3.90;3.63;;;29.70;89.60;;;;;;5110474;28;20496;-78
2023/06/24 10:35:29;;;;;;;3.73;3.43;;;29.70;88.60;;;;;;5111312;28;20878;-77
2023/06/24 10:40:52;;;;;;;3.33;3.13;;;30.10;84.10;;;;;;5107536;28;20428;-76
2023/06/24 10:43:43;;;;;;;3.53;3.33;;;30.00;80.70;;;;;;5105459;28;20482;-79
2023/06/24 10:46:17;;;;;;;3.20;3.00;;;29.10;81.30;;;;;;5101124;28;20474;-79
2023/06/24 10:48:45;;;;;;;3.43;3.23;;;29.30;81.20;;;;;;5098289;28;20512;-78
2023/06/24 10:51:14;;;;;;;3.70;3.40;;;30.10;78.80;;;;;;5094586;28;20954;-78
2023/06/24 10:53:45;;;;;;;4.77;3.80;;;30.40;77.20;;;;;;5095486;28;20519;-79
2023/06/24 10:56:13;;;;;;;2.80;2.70;;;30.90;76.10;;;;;;5098355;28;20456;-78
2023/06/24 10:58:42;;;;;;;3.00;2.80;;;30.70;73.80;;;;;;5100019;28;20448;-79
2023/06/24 11:01:19;;;;;;;3.07;2.87;;;30.20;73.70;;;;;;5101362;28;20432;-79
2023/06/24 11:03:47;;;;;;;3.17;2.97;;;30.30;72.20;;;;;;5102846;28;21120;-78
2023/06/24 11:06:20;;;;;;;2.90;2.70;;;30.40;70.60;;;;;;5102696;28;20475;-77
2023/06/24 11:08:48;;;;;;;3.30;3.10;;;30.40;70.10;;;;;;5101175;28;20453;-78
2023/06/24 11:11:23;;;;;;;3.20;3.10;;;30.60;69.90;;;;;;5099153;28;20452;-77
2023/06/24 11:13:53;;;;;;;4.20;3.33;;;30.90;68.60;;;;;;5100897;28;20521;-79
2023/06/24 11:16:32;;;;;;;3.20;3.00;;;29.90;69.70;;;;;;5101332;28;20436;-78
2023/06/24 11:19:04;;;;;;;3.30;3.10;;;30.10;70.10;;;;;;5100224;28;20483;-77
2023/06/24 11:21:33;;;;;;;3.83;3.63;;;30.60;70.00;;;;;;5099970;28;20444;-77
2023/06/24 11:24:05;;;;;;;3.03;2.83;;;30.90;68.60;;;;;;5101593;28;20500;-78
2023/06/24 11:26:42;;;;;;;3.50;3.30;;;31.00;69.40;;;;;;5104886;28;20482;-78
2023/06/24 11:29:17;;;;;;;3.60;3.30;;;31.00;68.50;;;;;;5104086;28;20474;-77
2023/06/24 11:31:50;;;;;;;3.27;3.07;;;30.40;69.50;;;;;;5103692;28;20451;-78
2023/06/24 11:34:21;;;;;;;3.20;3.00;;;30.80;69.90;;;;;;5100803;28;20491;-79
2023/06/24 11:36:51;;;;;;;3.20;3.00;;;31.20;68.70;;;;;;5099493;28;20533;-78
2023/06/24 11:39:24;;;;;;;3.93;3.63;;;31.60;67.60;;;;;;5099079;28;20579;-78
2023/06/24 11:41:53;;;;;;;3.37;3.17;;;31.80;66.90;;;;;;5098502;28;20440;-79
2023/06/24 11:44:22;;;;;;;3.70;3.50;;;31.80;65.70;;;;;;5098709;28;20534;-78
2023/06/24 11:46:53;;;;;;;3.47;3.27;;;31.20;64.20;;;;;;5098833;28;20899;-79
2023/06/24 11:49:31;;;;;;;3.70;3.40;;;31.70;65.20;;;;;;5099182;28;20486;-79
2023/06/24 11:52:03;;;;;;;3.53;3.33;;;31.70;62.70;;;;;;5100707;28;20444;-77
2023/06/24 12:04:53;;;;;;;3.40;3.20;;;32.60;60.80;;;;;;4953781;29;20437;-79
2023/06/24 12:10:15;;;;;;;4.13;3.73;;;31.70;61.70;;;;;;5116175;28;20438;-80
2023/06/24 12:13:00;;;;;;;3.70;3.50;;;32.50;60.80;;;;;;5116150;28;20535;-78
2023/06/24 12:15:29;;;;;;;3.30;3.10;;;33.00;60.50;;;;;;5118475;28;20436;-78
2023/06/24 12:18:02;;;;;;;3.23;3.03;;;32.00;60.50;;;;;;5119926;28;20534;-78
2023/06/24 12:20:34;;;;;;;3.73;3.40;;;32.20;60.00;;;;;;5119329;28;20449;-78
2023/06/24 12:23:14;;;;;;;3.50;3.30;;;32.10;59.40;;;;;;5119248;28;20467;-79
2023/06/24 12:25:51;;;;;;;3.70;3.40;;;31.30;61.00;;;;;;5119825;28;20539;-78
2023/06/24 12:28:20;;;;;;;3.10;2.90;;;32.30;60.60;;;;;;5119116;28;20430;-79
2023/06/24 12:30:58;;;;;;;17.33;3.53;;;32.70;59.60;;;;;;5118638;28;20451;-79
2023/06/24 12:33:32;;;;;;;3.20;3.00;;;32.70;58.90;;;;;;5117432;28;20467;-79
2023/06/24 12:36:07;;;;;;;3.13;2.93;;;33.10;58.50;;;;;;5119043;28;20442;-79
2023/06/24 12:38:45;;;;;;;3.57;3.37;;;33.30;58.70;;;;;;5118609;28;20509;-78
2023/06/24 12:41:18;;;;;;;3.60;3.40;;;33.60;58.20;;;;;;5119265;28;20507;-78
2023/06/24 12:43:46;;;;;;;3.87;3.57;;;33.00;57.60;;;;;;5119659;28;20478;-77
2023/06/24 12:46:17;;;;;;;3.57;3.37;;;33.50;57.10;;;;;;5119191;28;20476;-77
2023/06/24 12:48:46;;;;;;;3.00;2.80;;;33.10;56.70;;;;;;5114613;28;20450;-78
2023/06/24 12:51:22;;;;;;;3.23;3.03;;;33.10;56.80;;;;;;5113897;28;20475;-78
2023/06/24 12:57:12;;;;;;;2.97;2.87;;;33.70;56.10;;;;;;5079598;28;20436;-78
2023/06/24 12:59:56;;;;;;;3.60;3.30;;;34.00;55.80;;;;;;5101012;28;20582;-79
2023/06/24 13:03:03;;;;;;;3.70;3.40;;;34.40;55.10;;;;;;5100904;28;20474;-77
2023/06/24 13:05:48;;;;;;;3.17;3.00;;;34.40;54.20;;;;;;5095183;28;20487;-80
2023/06/24 13:08:31;;;;;;;3.70;3.50;;;33.90;54.40;;;;;;5098787;28;20460;-78
2023/06/24 13:11:18;;;;;;;3.50;3.20;;;33.70;54.40;;;;;;5099438;28;20461;-78
2023/06/24 13:16:53;;;;;;;3.37;3.10;;;33.90;54.20;;;;;;5064864;28;20428;-78
2023/06/24 13:19:22;;;;;;;3.47;3.17;;;34.10;52.20;;;;;;5100306;28;20447;-79
2023/06/24 13:25:07;;;;;;;3.10;3.00;;;32.70;55.00;;;;;;5087973;28;20853;-79
2023/06/24 13:27:35;;;;;;;3.70;3.50;;;32.40;56.30;;;;;;5099687;28;20443;-79
2023/06/24 13:30:06;;;;;;;3.50;3.30;;;33.00;55.30;;;;;;5100402;28;20534;-79
2023/06/24 13:32:35;;;;;;;3.63;3.37;;;33.10;55.40;;;;;;5100570;28;20571;-80
2023/06/24 13:35:04;;;;;;;3.73;3.43;;;33.10;55.40;;;;;;5098871;28;20452;-79
2023/06/24 13:37:38;;;;;;;3.90;3.60;;;33.60;54.90;;;;;;5099018;28;20458;-79
2023/06/24 13:40:11;;;;;;;3.60;3.30;;;33.20;54.40;;;;;;5097757;28;20803;-79
2023/06/24 13:42:40;;;;;;;3.43;3.20;;;33.40;54.40;;;;;;5097160;28;20517;-78
2023/06/24 13:48:05;;;;;;;4.90;3.70;;;33.90;53.10;;;;;;5097854;28;20443;-79
2023/06/24 13:50:38;;;;;;;3.17;2.97;;;32.50;53.80;;;;;;5103990;28;20431;-78
2023/06/24 13:53:28;;;;;;;3.50;3.17;;;33.20;53.80;;;;;;5104637;28;20502;-79
2023/06/24 13:56:16;;;;;;;3.10;2.90;;;34.10;52.80;;;;;;5102688;28;20493;-79